FACT

Cape Town International Airport

Cape Town, South Africa
METAR FACT 221500Z 33016KT 9999 FEW030 18/12 Q1019 NOSIG
Observed Flight Rules
May-22 @ 15:00 UTC (53 minutes ago) Visual Flight Rules
Wind Visibility Clouds
330° at 16 knots 10,000+ meters
  • Few at 3,000' AGL
Temperatures Readings
Current 18°C / 64°F
Dewpoint 12°C / 54°F
Humidity 68%
Altimeter 30.09" Hg
Pressure 1019 hPa
Elevation 42
METAR FACT 221500Z 33016KT 9999 FEW030 18/12 Q1019 NOSIG
Observed Flight Rules
May-22 @ 15:00 UTC
(53 minutes ago)
VFR
Wind Visibility
330° at 16 knots 10,000+ meters
Clouds
  • Few at 3,000' AGL
Temperature Dewpoint
18°C / 64°F 12°C / 54°F
Humidity Altimeter Pressure
68% 30.09" Hg 1019 hPa